Terminal Aerodrome Forecast
Issued by NWS

Home | Current Version | Previous Version | Text Only | Print | Product List | Glossary On
Versions: 1 2 3 4 5 6 7 8 9 10 11 12 13 14 15 16 17 18 19 20 21 22 23 24 25 26 27
000
FTUS46 KEKA 271740
TAFCEC
TAF
KCEC 271740Z 2718/2818 15005KT P6SM OVC008
      TEMPO 2718/2722 BKN010
     FM272200 20010KT P6SM -DZ OVC015
     FM280200 32006KT 4SM BR FEW007 OVC010=

USA.gov is the U.S. government's official web portal to all federal, state and local government web resources and services.